Madison, North Carolina
Current Conditions -  °F | °C
As of 4:15 PM on Sunday 21 Dec 2014 (Local Time) from KSIF Reporting Station
Overcast Overcast  
Wind Chill: 46°   Ceiling: 4800
Heat Index: 46°   Visibility: 10mi
Dew Point: 36°   Wind: 3mph
Humidity: 67%   Direction: 360°N
Pressure: 30.24"   Gusts: NA
Location:  36.39°N, 79.96°W
Report Text: KSIF 212115Z AUTO 36003KT 10SM SCT028 OVC048 08/02 A3024 RMK AO2 T00800022
Loading
Personal Weather Stations






























Interactive Weather Map New forecast layout! Learn more

10-Day Weather Forecast

Advertisements
Track Severe Weather on mobile